Αρχική σελίδα
METAR-TAF:

METAR-TAF

Αεροδρόμια :

Yellowknife, Βορειοδυτικά Εδάφη, Καναδάς

γεωγραφικό πλάτος: 62-28N, γεωγραφικό μήκος: 114-27W, υψόμετρο: 205 μ

Παρών καιρός

Η αναφορά έγινε 1 ώρα και 14 λεπτά πριν, στις 14:00 UTC
Άνεμος 11 kt από Ν
Θερμοκρασία -3°C
Υγρασία 93%
Πίεση 993 hPa
Ορατότητα: 24.1 χλμ
Αρκετά νέφη σε ύψος 22000 πόδια

METAR: CYZF 101400Z 17011KT 15SM BKN220 M03/M04 A2932 RMK CI5 SLP947

Χρόνος: 08:14 (15:14 UTC)

Πρόγνωση Καιρού

Η αναφορά έγινε 3 ώρες και 33 λεπτά πριν, στις 11:41 UTC
Η πρόγνωση ισχύει από τις 10 στις 12 UTC έως τις 11 στις 12 UTC
Άνεμος 10 kt από Ν
Ορατότητα: 10 χλμ
Αρκετά νέφη σε ύψος 24000 πόδια

TAF: CYZF 101141Z 1012/1112 18010KT P6SM BKN240 RMK NXT FCST BY 101800Z

Μετεωρολογικές αναφορές και προγνώσεις για περισσότερα από 4000 αεροδρόμια (δελτία METAR και TAF).

Οι διαθέσιμοι σταθμοί απεικονίζονται στο χάρτη με κίτρινες και κόκκινες κουκκίδες.

Μετακινήστε το ποντίκι πάνω από τις κουκκίδες για να δείτε το όνομα του σταθμού.

Στη συνέχεια, κάντε κλικ για να δείτε τις μετεωρολογικές αναφορές και τις προγνώσεις καιρού.

Για να αλλάξετε το χάρτη: κάντε κλικ στα πράσινα κουμπιά με τον μαύρο σταυρό για να ζουμάρετε, στο πράσινο κουμπί με την παύλα για να αφαιρέσετε το ζουμ ή στα πράσινα βέλη για να αντιπαραβάλλετε χάρτες.


METAR-TAF: